createdAt,value
2022-08-18T00:01:50.383Z,13.93
2022-08-18T00:04:34.885Z,8.17
2022-08-18T00:07:03.803Z,9.37
2022-08-18T00:09:32.815Z,10.00
2022-08-18T00:12:03.740Z,11.47
2022-08-18T00:14:31.141Z,11.03
2022-08-18T00:17:00.024Z,8.80
2022-08-18T00:19:45.712Z,9.60
2022-08-18T00:22:17.449Z,8.77
2022-08-18T00:24:48.596Z,6.50
2022-08-18T00:27:23.072Z,9.80
2022-08-18T00:29:52.388Z,7.73
2022-08-18T00:32:26.026Z,7.60
2022-08-18T00:34:54.532Z,7.63
2022-08-18T00:37:23.361Z,10.20
2022-08-18T00:39:52.841Z,9.50
2022-08-18T00:42:27.552Z,5.57
2022-08-18T00:44:59.410Z,12.87
2022-08-18T00:47:41.901Z,11.00
2022-08-18T00:50:28.404Z,8.83
2022-08-18T00:53:05.837Z,9.53
2022-08-18T00:55:34.124Z,9.47
2022-08-18T00:58:11.733Z,8.83
2022-08-18T01:00:39.073Z,6.43
2022-08-18T01:03:12.988Z,12.03
2022-08-18T01:05:45.770Z,5.33
2022-08-18T01:08:16.475Z,6.60
2022-08-18T01:10:46.198Z,9.43
2022-08-18T01:13:13.493Z,7.57
2022-08-18T01:15:41.059Z,6.80
2022-08-18T01:18:30.573Z,7.23
2022-08-18T01:21:39.533Z,6.43
2022-08-18T01:24:12.843Z,8.47
2022-08-18T01:26:50.047Z,8.97
2022-08-18T01:29:19.780Z,7.17
2022-08-18T01:31:56.307Z,10.47
2022-08-18T01:34:26.620Z,8.23
2022-08-18T01:36:55.252Z,7.77
2022-08-18T01:41:11.214Z,12.33
2022-08-18T01:42:10.465Z,7.67
2022-08-18T01:44:41.793Z,10.47
2022-08-18T01:47:11.048Z,7.13
2022-08-18T01:49:43.126Z,7.77
2022-08-18T01:52:18.105Z,12.23
2022-08-18T01:54:45.420Z,7.37
2022-08-18T01:57:15.495Z,6.73
2022-08-18T01:59:43.166Z,9.37
2022-08-18T02:02:18.504Z,8.17
2022-08-18T02:04:46.546Z,11.50
2022-08-18T02:07:15.221Z,8.77
2022-08-18T02:09:43.852Z,10.00
2022-08-18T02:12:11.594Z,12.70
2022-08-18T02:14:39.174Z,11.03
2022-08-18T02:17:08.686Z,11.27
2022-08-18T02:19:44.599Z,8.93
2022-08-18T02:22:18.135Z,8.87
2022-08-18T02:24:45.815Z,10.67
2022-08-18T02:27:14.230Z,11.87
2022-08-18T02:29:41.725Z,12.33
2022-08-18T02:32:09.102Z,12.43
2022-08-18T02:34:36.668Z,8.23
2022-08-18T02:37:04.496Z,10.73
2022-08-18T02:39:35.354Z,11.47
2022-08-18T02:42:02.607Z,8.83
2022-08-18T02:44:29.843Z,9.83
2022-08-18T02:46:57.040Z,9.10
2022-08-18T02:49:25.679Z,11.87
2022-08-18T02:51:53.935Z,7.60
2022-08-18T02:54:23.446Z,7.50
2022-08-18T02:56:59.906Z,15.90
2022-08-18T02:59:27.975Z,12.37
2022-08-18T03:01:59.347Z,11.60
2022-08-18T03:04:29.797Z,17.73
2022-08-18T03:07:01.681Z,20.20
2022-08-18T03:09:32.429Z,12.67
2022-08-18T03:12:00.173Z,10.27
2022-08-18T03:14:28.141Z,12.10
2022-08-18T03:16:55.600Z,11.57
2022-08-18T03:19:28.822Z,11.70
2022-08-18T03:22:02.800Z,13.63
2022-08-18T03:24:32.105Z,10.63
2022-08-18T03:27:01.756Z,15.43
2022-08-18T03:29:32.477Z,16.67
2022-08-18T03:32:02.452Z,13.93
2022-08-18T03:34:30.391Z,14.80
2022-08-18T03:36:58.027Z,15.87
2022-08-18T03:39:25.286Z,15.17
2022-08-18T03:41:59.131Z,20.90
2022-08-18T03:44:33.547Z,15.37
2022-08-18T03:47:04.220Z,20.23
2022-08-18T03:49:33.881Z,15.87
2022-08-18T03:52:01.755Z,15.37
2022-08-18T03:54:32.515Z,12.47
2022-08-18T03:57:00.498Z,11.93
2022-08-18T03:59:30.840Z,13.23
2022-08-18T04:01:58.088Z,17.57
2022-08-18T04:04:27.610Z,15.33
2022-08-18T04:07:04.622Z,14.70
2022-08-18T04:09:33.606Z,14.80
2022-08-18T04:12:16.423Z,17.77
2022-08-18T04:14:48.885Z,15.67
2022-08-18T04:17:25.213Z,18.80
2022-08-18T04:19:54.137Z,17.67
2022-08-18T04:22:21.607Z,14.70
2022-08-18T04:24:50.400Z,15.50
2022-08-18T04:27:21.692Z,13.47
2022-08-18T04:29:49.604Z,14.13
2022-08-18T04:32:17.198Z,16.13
2022-08-18T04:34:44.804Z,14.80
2022-08-18T04:37:15.605Z,13.90
2022-08-18T04:39:45.560Z,20.03
2022-08-18T04:42:12.950Z,20.67
2022-08-18T04:44:40.416Z,17.10
2022-08-18T04:47:09.404Z,17.80
2022-08-18T04:49:37.620Z,15.10
2022-08-18T04:52:38.262Z,15.80
2022-08-18T04:55:10.265Z,15.70
2022-08-18T04:57:37.548Z,16.47
2022-08-18T05:00:07.049Z,15.23
2022-08-18T05:02:35.154Z,19.80
2022-08-18T05:05:04.115Z,22.90
2022-08-18T05:07:31.773Z,19.93
2022-08-18T05:09:59.007Z,19.93
2022-08-18T05:12:26.785Z,19.77
2022-08-18T05:14:57.460Z,20.30
2022-08-18T05:17:30.175Z,18.07
2022-08-18T05:20:00.786Z,18.37
2022-08-18T05:22:30.518Z,14.67
2022-08-18T05:24:58.720Z,19.23
2022-08-18T05:27:30.709Z,13.33
2022-08-18T05:29:57.994Z,15.50
2022-08-18T05:32:40.995Z,15.03
2022-08-18T05:35:23.735Z,17.27
2022-08-18T05:38:07.792Z,14.83
2022-08-18T05:40:35.350Z,15.20
2022-08-18T05:43:04.938Z,16.10
2022-08-18T05:45:34.864Z,13.13
2022-08-18T05:48:02.371Z,12.20
2022-08-18T05:50:34.692Z,16.67
2022-08-18T05:53:14.825Z,13.00
2022-08-18T05:56:23.367Z,14.10
2022-08-18T05:58:53.284Z,14.00
2022-08-18T06:01:30.334Z,15.63
2022-08-18T06:04:07.133Z,11.93
2022-08-18T06:06:37.254Z,13.93
2022-08-18T06:09:22.454Z,14.93
2022-08-18T06:11:50.315Z,16.53
2022-08-18T06:14:17.673Z,14.80
2022-08-18T06:17:03.587Z,13.63
2022-08-18T06:19:36.828Z,13.67
2022-08-18T06:22:13.440Z,13.57
2022-08-18T06:24:59.479Z,14.97
2022-08-18T06:27:56.142Z,14.50
2022-08-18T06:30:32.795Z,13.30
2022-08-18T06:33:42.025Z,17.23
2022-08-18T06:36:33.539Z,13.27
2022-08-18T06:39:19.648Z,14.10
2022-08-18T06:41:49.615Z,15.17
2022-08-18T06:44:59.432Z,13.80
2022-08-18T06:47:48.099Z,16.23
2022-08-18T06:50:27.000Z,13.20
2022-08-18T06:53:04.110Z,16.00
2022-08-18T06:55:43.021Z,12.17
2022-08-18T06:58:16.301Z,12.13
2022-08-18T07:01:05.107Z,12.03
2022-08-18T07:03:37.177Z,17.50
2022-08-18T07:06:31.259Z,11.83
2022-08-18T07:09:22.198Z,9.77
2022-08-18T07:12:08.318Z,12.87
2022-08-18T07:14:48.942Z,12.07
2022-08-18T07:17:42.350Z,12.37
2022-08-18T07:20:25.847Z,15.03
2022-08-18T07:23:08.213Z,10.37
2022-08-18T07:25:42.909Z,9.20
2022-08-18T07:28:32.174Z,12.53
2022-08-18T07:31:17.539Z,14.30
2022-08-18T07:33:53.357Z,15.77
2022-08-18T07:36:24.402Z,13.77
2022-08-18T07:39:15.809Z,10.03
2022-08-18T07:41:53.005Z,13.80
2022-08-18T07:44:36.574Z,13.27
2022-08-18T07:47:13.295Z,12.17
2022-08-18T07:49:59.750Z,13.43
2022-08-18T07:52:46.954Z,10.57
2022-08-18T07:55:30.155Z,11.87
2022-08-18T07:58:22.344Z,12.73
2022-08-18T08:01:05.874Z,12.33
2022-08-18T08:04:25.774Z,12.77
2022-08-18T08:07:24.607Z,9.30
2022-08-18T08:10:02.464Z,10.50
2022-08-18T08:12:40.285Z,9.60
2022-08-18T08:15:27.976Z,11.20
2022-08-18T08:18:23.564Z,8.60
2022-08-18T08:21:11.103Z,7.43
2022-08-18T08:24:08.389Z,8.43
2022-08-18T08:27:19.836Z,9.60
2022-08-18T08:29:57.828Z,9.07
2022-08-18T08:32:31.057Z,9.27
2022-08-18T08:35:05.580Z,9.40
2022-08-18T08:37:58.551Z,9.00
2022-08-18T08:40:38.053Z,12.27
2022-08-18T08:43:19.042Z,10.77
2022-08-18T08:46:01.372Z,11.47
2022-08-18T08:48:33.004Z,8.97
2022-08-18T08:51:02.939Z,11.07
2022-08-18T08:53:35.293Z,10.27
2022-08-18T08:56:14.766Z,6.63
2022-08-18T08:58:47.747Z,6.50
2022-08-18T09:01:30.811Z,9.70
2022-08-18T09:04:22.912Z,5.17
2022-08-18T09:07:01.556Z,5.77
2022-08-18T09:09:31.344Z,8.07
2022-08-18T09:12:34.647Z,5.73
2022-08-18T09:15:25.145Z,8.70
2022-08-18T09:18:01.337Z,10.10
2022-08-18T09:20:51.552Z,15.47
2022-08-18T09:23:41.578Z,12.07
2022-08-18T09:26:47.187Z,6.93
2022-08-18T09:29:22.847Z,7.97
2022-08-18T09:32:19.338Z,10.73
2022-08-18T09:35:12.001Z,8.63
2022-08-18T09:38:26.453Z,9.60
2022-08-18T09:41:18.410Z,7.80
2022-08-18T09:44:26.618Z,15.60
2022-08-18T09:46:56.223Z,9.27
2022-08-18T09:49:27.450Z,14.73
2022-08-18T09:51:57.742Z,10.73
2022-08-18T09:54:33.365Z,18.90
2022-08-18T09:57:24.353Z,13.10
2022-08-18T09:59:59.268Z,12.50
2022-08-18T10:02:29.443Z,12.27
2022-08-18T10:05:19.327Z,11.10
2022-08-18T10:08:08.097Z,8.80
2022-08-18T10:11:00.976Z,6.23
2022-08-18T10:14:06.180Z,7.87
2022-08-18T10:19:52.014Z,6.67
2022-08-18T10:22:43.597Z,6.57
2022-08-18T10:28:05.599Z,5.63
2022-08-18T10:30:56.596Z,6.23
2022-08-18T10:33:56.957Z,9.20
2022-08-18T10:36:40.097Z,6.83
2022-08-18T10:39:17.774Z,7.70
2022-08-18T10:42:15.037Z,3.53
2022-08-18T10:44:46.491Z,5.03
2022-08-18T10:47:33.659Z,5.83
2022-08-18T10:50:05.826Z,4.27
2022-08-18T10:53:40.649Z,4.60
2022-08-18T10:56:28.675Z,9.83
2022-08-18T10:59:08.075Z,4.03
2022-08-18T11:01:47.020Z,5.13
2022-08-18T11:04:58.985Z,5.87
2022-08-18T11:07:34.026Z,5.20
2022-08-18T11:13:38.002Z,10.40
2022-08-18T11:16:22.136Z,9.57
2022-08-18T11:19:03.660Z,7.67
2022-08-18T11:21:42.197Z,9.20
2022-08-18T11:24:14.078Z,8.23
2022-08-18T11:26:52.891Z,5.93
2022-08-18T11:29:47.280Z,6.07
2022-08-18T11:32:51.455Z,6.23
2022-08-18T11:35:24.828Z,8.43
2022-08-18T11:37:56.917Z,9.47
2022-08-18T11:41:08.791Z,6.53
2022-08-18T11:43:40.752Z,10.63
2022-08-18T11:46:30.166Z,3.27
2022-08-18T11:49:01.963Z,6.33
2022-08-18T11:51:33.923Z,4.93
2022-08-18T11:54:15.536Z,7.70
2022-08-18T11:56:44.404Z,5.60
2022-08-18T11:59:52.581Z,5.70
2022-08-18T12:02:18.898Z,5.33
2022-08-18T12:04:53.375Z,6.40
2022-08-18T12:07:35.607Z,9.37
2022-08-18T12:10:26.528Z,5.07
2022-08-18T12:13:00.717Z,2.63
2022-08-18T12:15:43.472Z,8.07
2022-08-18T12:18:26.484Z,2.80
2022-08-18T12:20:58.441Z,5.17
2022-08-18T12:23:26.344Z,1.57
2022-08-18T12:25:53.902Z,3.73
2022-08-18T12:28:22.360Z,5.37
2022-08-18T12:30:57.134Z,3.37
2022-08-18T12:33:34.139Z,3.17
2022-08-18T12:36:13.539Z,4.80
2022-08-18T12:38:43.593Z,3.90
2022-08-18T12:41:12.314Z,2.63
2022-08-18T12:43:39.928Z,2.27
2022-08-18T12:46:11.912Z,2.93
2022-08-18T12:48:39.858Z,4.37
2022-08-18T12:51:08.576Z,2.80
2022-08-18T12:53:57.751Z,3.13
2022-08-18T12:56:30.507Z,3.83
2022-08-18T12:59:00.475Z,4.40
2022-08-18T13:01:32.848Z,3.90
2022-08-18T13:04:13.107Z,4.60
2022-08-18T13:07:00.663Z,4.03
2022-08-18T13:09:41.566Z,5.23
2022-08-18T13:12:20.845Z,4.43
2022-08-18T13:14:49.920Z,4.27
2022-08-18T13:17:32.803Z,3.40
2022-08-18T13:20:05.164Z,6.50
2022-08-18T13:22:33.404Z,3.63
2022-08-18T13:25:07.470Z,3.37
2022-08-18T13:27:37.427Z,5.27
2022-08-18T13:30:29.156Z,3.20
2022-08-18T13:32:58.899Z,5.50
2022-08-18T13:35:29.896Z,2.83
2022-08-18T13:38:15.670Z,3.07
2022-08-18T13:40:50.989Z,3.23
2022-08-18T13:43:23.697Z,3.03
2022-08-18T13:45:52.991Z,4.33
2022-08-18T13:48:23.819Z,2.83
2022-08-18T13:50:56.057Z,3.57
2022-08-18T13:53:24.830Z,1.93
2022-08-18T13:55:59.050Z,2.93
2022-08-18T13:58:28.233Z,3.23
2022-08-18T14:01:37.300Z,2.07
2022-08-18T14:03:52.536Z,4.57
2022-08-18T14:06:23.773Z,2.97
2022-08-18T14:08:53.289Z,3.10
2022-08-18T14:11:25.860Z,3.57
2022-08-18T14:13:54.761Z,2.37
2022-08-18T14:16:23.548Z,3.27
2022-08-18T14:19:15.825Z,1.53
2022-08-18T14:22:12.640Z,1.30
2022-08-18T14:25:00.967Z,1.57
2022-08-18T14:27:37.030Z,3.90
2022-08-18T14:30:14.758Z,1.63
2022-08-18T14:32:49.279Z,4.83
2022-08-18T14:36:03.723Z,2.13
2022-08-18T14:38:09.864Z,1.07
2022-08-18T14:40:41.809Z,4.57
2022-08-18T14:43:16.031Z,2.57
2022-08-18T14:45:50.716Z,3.23
2022-08-18T14:48:22.402Z,2.03
2022-08-18T14:50:53.151Z,1.40
2022-08-18T14:53:25.782Z,4.70
2022-08-18T14:55:55.332Z,1.40
2022-08-18T14:58:28.971Z,1.63
2022-08-18T15:00:59.970Z,2.50
2022-08-18T15:03:31.547Z,1.60
2022-08-18T15:06:00.976Z,3.17
2022-08-18T15:08:36.451Z,3.03
2022-08-18T15:11:11.562Z,4.60
2022-08-18T15:13:45.241Z,2.50
2022-08-18T15:16:14.744Z,2.20
2022-08-18T15:18:46.744Z,2.70
2022-08-18T15:21:38.957Z,2.67
2022-08-18T15:24:26.563Z,4.10
2022-08-18T15:27:05.684Z,1.73
2022-08-18T15:29:34.696Z,3.70
2022-08-18T15:32:10.106Z,3.10
2022-08-18T15:34:47.115Z,3.40
2022-08-18T15:37:22.312Z,3.10
2022-08-18T15:40:02.816Z,2.40
2022-08-18T15:42:30.715Z,2.73
2022-08-18T15:45:11.985Z,3.20
2022-08-18T15:47:42.216Z,2.27
2022-08-18T15:50:25.344Z,3.83
2022-08-18T15:52:58.129Z,3.60
2022-08-18T15:55:28.519Z,3.80
2022-08-18T15:57:58.229Z,1.80
2022-08-18T16:00:28.305Z,3.47
2022-08-18T16:03:09.000Z,3.70
2022-08-18T16:05:40.966Z,2.97
2022-08-18T16:08:10.542Z,2.00
2022-08-18T16:10:40.468Z,2.70
2022-08-18T16:13:08.524Z,1.87
2022-08-18T16:15:39.128Z,2.23
2022-08-18T16:18:09.401Z,4.27
2022-08-18T16:20:37.722Z,2.47
2022-08-18T16:23:05.597Z,4.47
2022-08-18T16:25:33.589Z,1.87
2022-08-18T16:28:01.402Z,4.23
2022-08-18T16:30:29.818Z,2.73
2022-08-18T16:33:03.183Z,3.87
2022-08-18T16:35:32.060Z,2.30
2022-08-18T16:38:09.059Z,5.27
2022-08-18T16:40:37.811Z,3.33
2022-08-18T16:43:08.382Z,3.60
2022-08-18T16:45:37.847Z,2.17
2022-08-18T16:48:08.276Z,2.57
2022-08-18T16:50:37.814Z,3.93
2022-08-18T16:53:07.246Z,2.47
2022-08-18T16:55:35.327Z,4.60
2022-08-18T16:58:23.129Z,4.23
2022-08-18T17:01:11.563Z,2.50
2022-08-18T17:04:04.259Z,6.20
2022-08-18T17:06:47.202Z,3.17
2022-08-18T17:09:16.746Z,2.27
2022-08-18T17:11:47.922Z,3.37
2022-08-18T17:14:20.685Z,2.30
2022-08-18T17:16:51.660Z,2.37
2022-08-18T17:19:19.085Z,3.30
2022-08-18T17:21:46.714Z,2.80
2022-08-18T17:24:14.903Z,2.90
2022-08-18T17:26:53.969Z,2.37
2022-08-18T17:29:23.239Z,4.87
2022-08-18T17:32:20.413Z,2.50
2022-08-18T17:34:54.503Z,2.57
2022-08-18T17:37:24.008Z,2.00
2022-08-18T17:39:56.393Z,4.83
2022-08-18T17:42:26.246Z,3.93
2022-08-18T17:45:22.190Z,2.83
2022-08-18T17:47:53.947Z,2.63
2022-08-18T17:51:07.899Z,2.30
2022-08-18T17:53:39.087Z,2.43
2022-08-18T17:56:18.095Z,3.20
2022-08-18T17:59:00.837Z,3.00
2022-08-18T18:01:28.995Z,4.87
2022-08-18T18:03:59.845Z,2.53
2022-08-18T18:06:46.253Z,2.20
2022-08-18T18:09:21.763Z,3.20
2022-08-18T18:11:49.165Z,3.20
2022-08-18T18:14:39.882Z,2.23
2022-08-18T18:17:15.477Z,5.77
2022-08-18T18:19:45.389Z,2.73
2022-08-18T18:22:24.514Z,2.83
2022-08-18T18:25:00.998Z,4.20
2022-08-18T18:27:40.988Z,7.23
2022-08-18T18:30:23.912Z,3.83
2022-08-18T18:33:05.575Z,3.77
2022-08-18T18:35:57.076Z,2.73
2022-08-18T18:38:31.562Z,2.60
2022-08-18T18:41:04.972Z,3.37
2022-08-18T18:43:39.513Z,3.73
2022-08-18T18:46:33.694Z,2.50
2022-08-18T18:49:18.310Z,3.27
2022-08-18T18:52:19.631Z,3.80
2022-08-18T18:55:02.837Z,2.80
2022-08-18T18:57:50.340Z,4.00
2022-08-18T19:00:44.126Z,3.93
2022-08-18T19:03:46.727Z,3.43
2022-08-18T19:06:19.523Z,3.50
2022-08-18T19:09:15.583Z,3.57
2022-08-18T19:12:19.954Z,3.37
2022-08-18T19:14:59.566Z,4.67
2022-08-18T19:17:43.436Z,5.43
2022-08-18T19:20:18.594Z,6.03
2022-08-18T19:22:52.001Z,7.53
2022-08-18T19:25:41.649Z,8.43
2022-08-18T19:28:33.402Z,9.43
2022-08-18T19:31:14.093Z,5.97
2022-08-18T19:33:50.041Z,8.43
2022-08-18T19:36:32.265Z,9.30
2022-08-18T19:39:17.691Z,11.20
2022-08-18T19:42:11.939Z,7.17
2022-08-18T19:44:47.383Z,9.10
2022-08-18T19:47:52.622Z,8.33
2022-08-18T19:50:26.189Z,7.20
2022-08-18T19:53:24.300Z,12.83
2022-08-18T19:55:54.399Z,7.20
2022-08-18T19:58:24.297Z,10.30
2022-08-18T20:00:57.616Z,10.23
2022-08-18T20:04:00.709Z,10.47
2022-08-18T20:06:36.036Z,6.37
2022-08-18T20:09:26.940Z,9.80
2022-08-18T20:12:22.022Z,7.63
2022-08-18T20:15:02.182Z,9.60
2022-08-18T20:17:30.877Z,6.40
2022-08-18T20:19:59.621Z,9.07
2022-08-18T20:22:36.444Z,8.37
2022-08-18T20:25:30.558Z,9.47
2022-08-18T20:28:04.217Z,11.57
2022-08-18T20:30:33.480Z,17.60
2022-08-18T20:33:25.745Z,7.67
2022-08-18T20:36:25.428Z,6.67
2022-08-18T20:38:56.713Z,7.33
2022-08-18T20:41:23.919Z,12.40
2022-08-18T20:44:09.423Z,9.27
2022-08-18T20:46:51.556Z,12.00
2022-08-18T20:49:36.634Z,9.37
2022-08-18T20:52:37.308Z,10.97
2022-08-18T20:55:11.720Z,11.70
2022-08-18T20:57:40.453Z,10.03
2022-08-18T21:00:13.473Z,12.03
2022-08-18T21:02:47.147Z,8.83
2022-08-18T21:05:27.786Z,12.40
2022-08-18T21:08:16.427Z,8.70
2022-08-18T21:10:58.892Z,14.00
2022-08-18T21:13:29.008Z,10.97
2022-08-18T21:15:58.741Z,10.10
2022-08-18T21:18:27.213Z,23.90
2022-08-18T21:20:58.153Z,12.10
2022-08-18T21:23:33.771Z,12.00
2022-08-18T21:26:15.135Z,18.00
2022-08-18T21:28:49.580Z,12.40
2022-08-18T21:31:41.677Z,9.63
2022-08-18T21:34:18.581Z,11.30
2022-08-18T21:36:54.832Z,14.63
2022-08-18T21:39:22.600Z,8.20
2022-08-18T21:41:52.827Z,13.77
2022-08-18T21:44:29.227Z,12.63
2022-08-18T21:47:17.837Z,10.90
2022-08-18T21:50:10.182Z,14.40
2022-08-18T21:52:55.711Z,15.67
2022-08-18T21:55:33.482Z,10.73
2022-08-18T21:58:03.298Z,12.73
2022-08-18T22:00:35.037Z,13.20
2022-08-18T22:03:20.608Z,16.93
2022-08-18T22:05:59.606Z,19.47
2022-08-18T22:08:33.624Z,15.93
2022-08-18T22:12:01.959Z,13.07
2022-08-18T22:14:53.913Z,12.27
2022-08-18T22:17:43.482Z,9.97
2022-08-18T22:20:38.748Z,9.90
2022-08-18T22:23:33.380Z,8.17
2022-08-18T22:26:18.392Z,11.53
2022-08-18T22:29:00.260Z,13.57
2022-08-18T22:31:31.272Z,12.83
2022-08-18T22:34:05.522Z,10.53
2022-08-18T22:36:41.999Z,10.93
2022-08-18T22:39:12.611Z,12.83
2022-08-18T22:41:41.811Z,12.60
2022-08-18T22:44:10.062Z,11.03
2022-08-18T22:46:37.456Z,29.07
2022-08-18T22:49:04.966Z,33.07
2022-08-18T22:51:33.436Z,20.80
2022-08-18T22:54:00.644Z,17.40
2022-08-18T22:56:34.363Z,14.37
2022-08-18T22:59:15.848Z,14.90
2022-08-18T23:01:47.003Z,22.70
2022-08-18T23:04:16.176Z,16.47
2022-08-18T23:06:51.757Z,13.53
2022-08-18T23:09:24.856Z,15.17
2022-08-18T23:11:54.247Z,16.53
2022-08-18T23:14:22.429Z,16.77
2022-08-18T23:16:49.974Z,13.63
2022-08-18T23:19:19.837Z,16.57
2022-08-18T23:21:48.673Z,10.13
2022-08-18T23:24:17.481Z,9.50
2022-08-18T23:26:45.783Z,9.67
2022-08-18T23:29:14.599Z,10.53
2022-08-18T23:31:43.557Z,13.97
2022-08-18T23:34:13.309Z,11.43
2022-08-18T23:36:45.313Z,9.27
2022-08-18T23:39:15.310Z,7.70
2022-08-18T23:41:43.541Z,13.13
2022-08-18T23:44:14.999Z,4.70
2022-08-18T23:46:44.068Z,5.83
2022-08-18T23:49:14.959Z,8.80
2022-08-18T23:51:51.116Z,4.53
2022-08-18T23:54:30.827Z,5.13
2022-08-18T23:56:58.358Z,4.67
2022-08-18T23:59:27.271Z,8.97
